Time,TemperatureF,DewpointF,PressureIn,WindDirection,WindDirectionDegrees,WindSpeedMPH,WindSpeedGustMPH,Humidity,HourlyPrecipIn,Conditions,Clouds,dailyrainin,SoftwareType,DateUTC
2013-01-06 03:08:00,32.2,5.0,29.38,SW,225,15.2,15.2,31,0.00,,---,0.00,VWS V14.01,2013-01-06 09:08:00,
2013-01-06 03:13:00,31.1,4.0,29.38,West,261,16.6,17.4,31,0.00,,---,0.00,VWS V14.01,2013-01-06 09:13:00,
2013-01-06 03:18:00,30.6,3.5,29.38,SSW,209,15.2,16.6,31,0.00,,---,0.00,VWS V14.01,2013-01-06 09:18:00,
2013-01-06 03:23:00,30.2,3.9,29.38,SSW,207,15.2,15.2,32,0.00,,---,0.00,VWS V14.01,2013-01-06 09:23:00,
2013-01-06 03:28:00,29.5,3.9,29.38,SW,223,16.1,16.1,33,0.00,,---,0.00,VWS V14.01,2013-01-06 09:28:00,
2013-01-06 03:33:00,29.1,4.3,29.38,SW,230,12.5,14.3,34,0.00,,---,0.00,VWS V14.01,2013-01-06 09:33:00,
2013-01-06 03:38:00,28.6,2.5,29.38,WSW,245,17.4,17.4,32,0.00,,---,0.00,VWS V14.01,2013-01-06 09:38:00,
2013-01-06 03:43:00,28.4,3.0,29.38,SW,225,12.5,16.1,33,0.00,,---,0.00,VWS V14.01,2013-01-06 09:43:00,
2013-01-06 03:48:00,27.9,2.5,29.38,WSW,237,11.6,11.6,33,0.00,,---,0.00,VWS V14.01,2013-01-06 09:48:00,
2013-01-06 03:53:00,27.7,1.7,29.38,SW,230,16.1,16.1,32,0.00,,---,0.00,VWS V14.01,2013-01-06 09:53:00,
2013-01-06 03:58:00,27.7,1.7,29.38,West,272,16.6,16.6,32,0.00,,---,0.00,VWS V14.01,2013-01-06 09:58:00,
2013-01-06 04:03:00,27.3,1.4,29.38,SW,230,11.6,11.6,32,0.00,,---,0.00,VWS V14.01,2013-01-06 10:03:00,
2013-01-06 04:08:00,27.0,1.7,29.38,West,263,11.6,11.6,33,0.00,,---,0.00,VWS V14.01,2013-01-06 10:08:00,
2013-01-06 04:13:00,27.1,1.2,29.38,WSW,239,16.1,16.1,32,0.00,,---,0.00,VWS V14.01,2013-01-06 10:13:00,
2013-01-06 04:18:00,27.0,1.0,29.38,SW,236,10.7,17.4,32,0.00,,---,0.00,VWS V14.01,2013-01-06 10:18:00,
2013-01-06 04:23:00,26.6,2.0,29.38,WSW,241,7.2,10.7,34,0.00,,---,0.00,VWS V14.01,2013-01-06 10:23:00,
2013-01-06 04:28:00,26.6,2.0,29.38,SW,232,11.6,11.6,34,0.00,,---,0.00,VWS V14.01,2013-01-06 10:28:00,
2013-01-06 04:33:00,26.6,2.0,29.38,SW,225,12.5,12.5,34,0.00,,---,0.00,VWS V14.01,2013-01-06 10:33:00,
2013-01-06 04:38:00,27.0,1.7,29.38,West,262,16.6,16.6,33,0.00,,---,0.00,VWS V14.01,2013-01-06 10:38:00,
2013-01-06 04:43:00,27.0,1.7,29.41,WSW,240,17.4,17.4,33,0.00,,---,0.00,VWS V14.01,2013-01-06 10:43:00,
2013-01-06 04:48:00,27.0,1.7,29.41,WSW,247,16.1,16.1,33,0.00,,---,0.00,VWS V14.01,2013-01-06 10:48:00,
2013-01-06 04:53:00,27.0,1.7,29.41,WSW,245,16.6,16.6,33,0.00,,---,0.00,VWS V14.01,2013-01-06 10:53:00,
2013-01-06 04:58:00,27.0,1.7,29.41,SSE,160,11.6,11.6,33,0.00,,---,0.00,VWS V14.01,2013-01-06 10:58:00,
2013-01-06 05:03:00,27.0,1.7,29.41,SSW,206,16.1,17.4,33,0.00,,---,0.00,VWS V14.01,2013-01-06 11:03:00,
2013-01-06 05:08:00,27.0,1.7,29.41,SW,236,15.2,21.9,33,0.00,,---,0.00,VWS V14.01,2013-01-06 11:08:00,
2013-01-06 05:13:00,27.0,1.7,29.41,WSW,240,11.6,15.2,33,0.00,,---,0.00,VWS V14.01,2013-01-06 11:13:00,
2013-01-06 05:18:00,27.0,1.7,29.41,West,271,12.5,16.6,33,0.00,,---,0.00,VWS V14.01,2013-01-06 11:18:00,
2013-01-06 05:23:00,27.0,1.7,29.41,WSW,246,20.1,20.1,33,0.00,,---,0.00,VWS V14.01,2013-01-06 11:23:00,
2013-01-06 05:28:00,27.0,1.7,29.44,WNW,293,12.5,12.5,33,0.00,,---,0.00,VWS V14.01,2013-01-06 11:28:00,
2013-01-06 05:33:00,27.0,1.7,29.44,SW,227,21.9,21.9,33,0.00,,---,0.00,VWS V14.01,2013-01-06 11:33:00,
2013-01-06 05:38:00,25.3,-1.1,29.44,WSW,256,12.5,15.2,31,0.00,,---,0.00,VWS V14.01,2013-01-06 11:38:00,
2013-01-06 05:43:00,25.2,-1.2,29.44,WSW,238,10.7,12.5,31,0.00,,---,0.00,VWS V14.01,2013-01-06 11:43:00,
2013-01-06 05:48:00,25.2,-1.2,29.44,WSW,247,11.6,11.6,31,0.00,,---,0.00,VWS V14.01,2013-01-06 11:48:00,
2013-01-06 05:53:00,25.0,-1.4,29.44,West,271,10.7,12.5,31,0.00,,---,0.00,VWS V14.01,2013-01-06 11:53:00,
2013-01-06 05:58:00,24.6,-1.0,29.44,West,262,16.1,16.1,32,0.00,,---,0.00,VWS V14.01,2013-01-06 11:58:00,
2013-01-06 06:03:00,23.9,-1.7,29.44,WSW,249,14.3,14.3,32,0.00,,---,0.00,VWS V14.01,2013-01-06 12:03:00,
2013-01-06 06:08:00,23.5,-2.0,29.44,WSW,253,17.4,17.4,32,0.00,,---,0.00,VWS V14.01,2013-01-06 12:08:00,
2013-01-06 06:13:00,23.7,-1.8,29.44,SW,231,10.7,11.6,32,0.00,,---,0.00,VWS V14.01,2013-01-06 12:13:00,
2013-01-06 06:18:00,23.7,-1.8,29.44,West,269,11.6,11.6,32,0.00,,---,0.00,VWS V14.01,2013-01-06 12:18:00,
2013-01-06 06:23:00,23.7,-1.8,29.44,West,273,8.1,8.1,32,0.00,,---,0.00,VWS V14.01,2013-01-06 12:23:00,
2013-01-06 06:28:00,23.9,-1.7,29.44,WSW,255,10.7,12.5,32,0.00,,---,0.00,VWS V14.01,2013-01-06 12:28:00,
2013-01-06 06:33:00,23.7,-1.8,29.44,WSW,255,19.2,19.2,32,0.00,,---,0.00,VWS V14.01,2013-01-06 12:33:00,
2013-01-06 06:38:00,23.7,-1.8,29.44,SW,225,11.6,11.6,32,0.00,,---,0.00,VWS V14.01,2013-01-06 12:38:00,
2013-01-06 06:43:00,23.7,-1.8,29.47,West,261,16.6,17.4,32,0.00,,---,0.00,VWS V14.01,2013-01-06 12:43:00,
2013-01-06 06:48:00,23.7,-1.8,29.47,West,268,13.4,21.9,32,0.00,,---,0.00,VWS V14.01,2013-01-06 12:48:00,
2013-01-06 06:53:00,23.7,-1.8,29.47,West,275,10.7,12.5,32,0.00,,---,0.00,VWS V14.01,2013-01-06 12:53:00,
2013-01-06 06:58:00,23.7,-1.8,29.47,WSW,257,11.6,11.6,32,0.00,,---,0.00,VWS V14.01,2013-01-06 12:58:00,
2013-01-06 07:03:00,23.7,-1.8,29.47,WSW,256,12.5,14.3,32,0.00,,---,0.00,VWS V14.01,2013-01-06 13:03:00,
2013-01-06 07:08:00,22.5,-2.9,29.47,SSW,196,16.6,16.6,32,0.00,,---,0.00,VWS V14.01,2013-01-06 13:08:00,
2013-01-06 07:13:00,22.3,-4.4,29.47,West,263,12.5,12.5,30,0.00,,---,0.00,VWS V14.01,2013-01-06 13:13:00,
2013-01-06 07:18:00,21.9,-4.8,29.47,WSW,245,21.9,21.9,30,0.00,,---,0.00,VWS V14.01,2013-01-06 13:18:00,
2013-01-06 07:23:00,21.9,-3.4,29.47,West,274,12.5,12.5,32,0.00,,---,0.00,VWS V14.01,2013-01-06 13:23:00,
2013-01-06 07:28:00,21.7,-4.9,29.47,WNW,286,20.1,20.1,30,0.00,,---,0.00,VWS V14.01,2013-01-06 13:28:00,
2013-01-06 07:33:00,21.6,-3.7,29.47,WSW,245,12.5,12.5,32,0.00,,---,0.00,VWS V14.01,2013-01-06 13:33:00,
2013-01-06 07:38:00,21.2,-4.0,29.47,West,264,15.2,15.2,32,0.00,,---,0.00,VWS V14.01,2013-01-06 13:38:00,
2013-01-06 07:43:00,21.2,-4.0,29.50,West,275,11.6,12.5,32,0.00,,---,0.00,VWS V14.01,2013-01-06 13:43:00,
2013-01-06 07:48:00,20.8,-5.7,29.50,WNW,282,12.5,15.2,30,0.00,,---,0.00,VWS V14.01,2013-01-06 13:48:00,
2013-01-06 07:53:00,20.7,-4.5,29.50,West,260,11.6,12.5,32,0.00,,---,0.00,VWS V14.01,2013-01-06 13:53:00,
2013-01-06 07:58:00,20.5,-4.7,29.50,West,280,12.5,15.2,32,0.00,,---,0.00,VWS V14.01,2013-01-06 13:58:00,
2013-01-06 08:03:00,20.5,-4.7,29.50,WSW,249,15.2,15.2,32,0.00,,---,0.00,VWS V14.01,2013-01-06 14:03:00,
2013-01-06 08:08:00,20.5,-4.7,29.50,WSW,249,15.2,15.2,32,0.00,,---,0.00,VWS V14.01,2013-01-06 14:08:00,
2013-01-06 08:13:00,20.5,-4.7,29.50,West,264,11.6,11.6,32,0.00,,---,0.00,VWS V14.01,2013-01-06 14:13:00,
2013-01-06 08:18:00,20.5,-4.7,29.50,West,260,12.5,12.5,32,0.00,,---,0.00,VWS V14.01,2013-01-06 14:18:00,
2013-01-06 08:23:00,20.5,-4.7,29.50,WSW,248,11.6,11.6,32,0.00,,---,0.00,VWS V14.01,2013-01-06 14:23:00,
2013-01-06 08:28:00,20.5,-4.7,29.53,West,261,12.5,12.5,32,0.00,,---,0.00,VWS V14.01,2013-01-06 14:28:00,
2013-01-06 08:33:00,20.5,-4.7,29.53,WSW,256,21.0,21.0,32,0.00,,---,0.00,VWS V14.01,2013-01-06 14:33:00,
2013-01-06 08:38:00,20.5,-4.7,29.53,WSW,249,21.0,21.0,32,0.00,,---,0.00,VWS V14.01,2013-01-06 14:38:00,
2013-01-06 08:43:00,20.5,-4.7,29.53,WSW,245,20.1,20.1,32,0.00,,---,0.00,VWS V14.01,2013-01-06 14:43:00,
2013-01-06 08:48:00,20.5,-4.7,29.53,West,263,20.1,20.1,32,0.00,,---,0.00,VWS V14.01,2013-01-06 14:48:00,
2013-01-06 08:53:00,20.5,-4.7,29.53,WSW,251,16.1,16.1,32,0.00,,---,0.00,VWS V14.01,2013-01-06 14:53:00,
2013-01-06 08:58:00,20.5,-4.7,29.56,SW,235,16.6,17.4,32,0.00,,---,0.00,VWS V14.01,2013-01-06 14:58:00,
2013-01-06 09:03:00,20.5,-4.7,29.56,WSW,256,10.7,10.7,32,0.00,,---,0.00,VWS V14.01,2013-01-06 15:03:00,
2013-01-06 09:08:00,20.5,-4.7,29.56,WSW,257,11.6,21.0,32,0.00,,---,0.00,VWS V14.01,2013-01-06 15:08:00,
2013-01-06 09:13:00,20.5,-4.7,29.56,WNW,301,15.2,15.2,32,0.00,,---,0.00,VWS V14.01,2013-01-06 15:13:00,
2013-01-06 09:18:00,20.5,-4.7,29.56,West,279,15.2,15.2,32,0.00,,---,0.00,VWS V14.01,2013-01-06 15:18:00,
2013-01-06 09:23:00,20.5,-4.7,29.56,WSW,249,15.2,15.2,32,0.00,,---,0.00,VWS V14.01,2013-01-06 15:23:00,
2013-01-06 09:28:00,20.5,-4.7,29.56,WSW,246,12.5,12.5,32,0.00,,---,0.00,VWS V14.01,2013-01-06 15:28:00,
2013-01-06 09:33:00,20.5,-4.7,29.56,West,265,15.2,20.1,32,0.00,,---,0.00,VWS V14.01,2013-01-06 15:33:00,
2013-01-06 09:38:00,20.5,-4.7,29.56,WSW,238,12.5,12.5,32,0.00,,---,0.00,VWS V14.01,2013-01-06 15:38:00,
2013-01-06 09:43:00,20.5,-4.7,29.56,WSW,247,11.6,12.5,32,0.00,,---,0.00,VWS V14.01,2013-01-06 15:43:00,
2013-01-06 09:48:00,20.5,-4.7,29.56,SW,224,16.6,16.6,32,0.00,,---,0.00,VWS V14.01,2013-01-06 15:48:00,
2013-01-06 09:53:00,20.5,-4.7,29.56,WSW,254,11.6,11.6,32,0.00,,---,0.00,VWS V14.01,2013-01-06 15:53:00,
2013-01-06 09:58:00,20.5,0.0,29.56,West,272,14.3,16.6,0,0.00,,---,0.00,VWS V14.01,2013-01-06 15:58:00,
2013-01-06 10:03:00,20.5,0.0,29.56,West,261,12.5,12.5,0,0.00,,---,0.00,VWS V14.01,2013-01-06 16:03:00,
2013-01-06 10:08:00,20.5,0.0,29.56,West,266,11.6,11.6,0,0.00,,---,0.00,VWS V14.01,2013-01-06 16:08:00,
2013-01-06 10:13:00,20.5,0.0,29.59,WSW,249,16.6,16.6,0,0.00,,---,0.00,VWS V14.01,2013-01-06 16:13:00,
2013-01-06 10:18:00,20.5,0.0,29.59,WSW,246,14.3,14.3,0,0.00,,---,0.00,VWS V14.01,2013-01-06 16:18:00,
2013-01-06 10:23:00,20.5,0.0,29.59,West,263,12.5,12.5,0,0.00,,---,0.00,VWS V14.01,2013-01-06 16:23:00,
2013-01-06 10:28:00,20.5,0.0,29.59,WSW,243,11.6,11.6,0,0.00,,---,0.00,VWS V14.01,2013-01-06 16:28:00,
2013-01-06 10:33:00,20.5,0.0,29.59,SSW,210,11.6,11.6,0,0.00,,---,0.00,VWS V14.01,2013-01-06 16:33:00,
2013-01-06 10:38:00,20.5,0.0,29.59,WSW,244,10.7,11.6,0,0.00,,---,0.00,VWS V14.01,2013-01-06 16:38:00,
2013-01-06 10:43:00,20.5,0.0,29.59,WSW,243,11.6,21.9,0,0.00,,---,0.00,VWS V14.01,2013-01-06 16:43:00,
2013-01-06 10:48:00,20.5,0.0,29.59,WSW,249,12.5,12.5,0,0.00,,---,0.00,VWS V14.01,2013-01-06 16:48:00,
2013-01-06 10:53:00,20.5,0.0,29.59,WSW,256,15.2,15.2,0,0.00,,---,0.00,VWS V14.01,2013-01-06 16:53:00,
2013-01-06 10:58:00,20.5,0.0,29.59,West,259,11.6,20.1,0,0.00,,---,0.00,VWS V14.01,2013-01-06 16:58:00,
2013-01-06 11:03:00,20.5,0.0,29.59,SW,231,16.1,16.1,0,0.00,,---,0.00,VWS V14.01,2013-01-06 17:03:00,
2013-01-06 11:08:00,20.5,0.0,29.59,WSW,237,8.1,12.5,0,0.00,,---,0.00,VWS V14.01,2013-01-06 17:08:00,
2013-01-06 11:13:00,20.5,0.0,29.59,WSW,237,11.6,16.6,0,0.00,,---,0.00,VWS V14.01,2013-01-06 17:13:00,
2013-01-06 11:18:00,20.5,0.0,29.59,WNW,288,11.6,15.2,0,0.00,,---,0.00,VWS V14.01,2013-01-06 17:18:00,
2013-01-06 11:23:00,20.5,0.0,29.59,WSW,245,16.1,16.1,0,0.00,,---,0.00,VWS V14.01,2013-01-06 17:23:00,
2013-01-06 11:28:00,20.5,0.0,29.56,West,267,11.6,11.6,0,0.00,,---,0.00,VWS V14.01,2013-01-06 17:28:00,
2013-01-06 11:33:00,20.5,0.0,29.56,WSW,258,10.7,10.7,0,0.00,,---,0.00,VWS V14.01,2013-01-06 17:33:00,
2013-01-06 11:38:00,20.5,0.0,29.56,WNW,292,17.4,17.4,0,0.00,,---,0.00,VWS V14.01,2013-01-06 17:38:00,
2013-01-06 11:43:00,20.5,0.0,29.59,WNW,283,9.8,9.8,0,0.00,,---,0.00,VWS V14.01,2013-01-06 17:43:00,
2013-01-06 11:48:00,20.5,0.0,29.59,WSW,250,11.6,11.6,0,0.00,,---,0.00,VWS V14.01,2013-01-06 17:48:00,
2013-01-06 11:53:00,20.5,0.0,29.59,West,276,15.2,15.2,0,0.00,,---,0.00,VWS V14.01,2013-01-06 17:53:00,
2013-01-06 11:58:00,20.5,0.0,29.59,SW,225,11.6,20.1,0,0.00,,---,0.00,VWS V14.01,2013-01-06 17:58:00,
2013-01-06 12:03:00,20.5,0.0,29.59,WNW,295,12.5,17.4,0,0.00,,---,0.00,VWS V14.01,2013-01-06 18:03:00,
2013-01-06 12:08:00,20.5,0.0,29.59,WSW,252,11.6,11.6,0,0.00,,---,0.00,VWS V14.01,2013-01-06 18:08:00,
2013-01-06 12:13:00,20.5,0.0,29.59,West,263,14.3,14.3,0,0.00,,---,0.00,VWS V14.01,2013-01-06 18:13:00,
2013-01-06 12:18:00,20.5,0.0,29.59,WSW,253,16.1,16.1,0,0.00,,---,0.00,VWS V14.01,2013-01-06 18:18:00,
2013-01-06 12:23:00,20.5,0.0,29.59,West,275,11.6,15.2,0,0.00,,---,0.00,VWS V14.01,2013-01-06 18:23:00,
2013-01-06 12:28:00,20.5,0.0,29.59,WSW,255,11.6,15.2,0,0.00,,---,0.00,VWS V14.01,2013-01-06 18:28:00,
2013-01-06 12:33:00,20.5,0.0,29.59,West,279,15.2,24.6,0,0.00,,---,0.00,VWS V14.01,2013-01-06 18:33:00,
2013-01-06 12:38:00,20.5,0.0,29.59,SW,229,16.6,20.1,0,0.00,,---,0.00,VWS V14.01,2013-01-06 18:38:00,
2013-01-06 12:43:00,29.3,-3.9,29.59,WNW,303,10.7,12.5,23,0.00,,---,0.00,VWS V14.01,2013-01-06 18:43:00,
2013-01-06 12:48:00,29.1,-4.1,29.59,WSW,253,15.2,17.4,23,0.00,,---,0.00,VWS V14.01,2013-01-06 18:48:00,
2013-01-06 12:53:00,30.2,-3.1,29.59,WSW,242,16.1,16.6,23,0.00,,---,0.00,VWS V14.01,2013-01-06 18:53:00,
2013-01-06 12:58:00,30.2,-3.1,29.59,West,260,12.5,16.6,23,0.00,,---,0.00,VWS V14.01,2013-01-06 18:58:00,
2013-01-06 13:03:00,29.8,-3.4,29.59,WNW,291,12.5,16.1,23,0.00,,---,0.00,VWS V14.01,2013-01-06 19:03:00,
2013-01-06 13:08:00,30.6,-2.8,29.59,WSW,251,17.4,21.0,23,0.00,,---,0.00,VWS V14.01,2013-01-06 19:08:00,
2013-01-06 13:13:00,30.6,-2.8,29.62,WSW,249,16.1,16.1,23,0.00,,---,0.00,VWS V14.01,2013-01-06 19:13:00,
2013-01-06 13:18:00,30.6,-2.8,29.62,SW,228,16.1,16.6,23,0.00,,---,0.00,VWS V14.01,2013-01-06 19:18:00,
2013-01-06 13:23:00,30.6,-2.8,29.62,WNW,291,16.6,17.4,23,0.00,,---,0.00,VWS V14.01,2013-01-06 19:23:00,
2013-01-06 13:27:00,30.6,-2.8,29.62,West,265,11.6,16.6,23,0.00,,---,0.00,VWS V14.01,2013-01-06 19:27:00,
2013-01-06 13:33:00,30.6,-2.8,29.62,West,270,10.7,17.4,23,0.00,,---,0.00,VWS V14.01,2013-01-06 19:33:00,
2013-01-06 13:38:00,30.6,-2.8,29.62,West,262,16.1,17.4,23,0.00,,---,0.00,VWS V14.01,2013-01-06 19:38:00,
2013-01-06 13:47:00,30.6,-2.8,29.62,West,271,11.6,16.6,23,0.00,,---,0.00,VWS V14.01,2013-01-06 19:47:00,
2013-01-06 13:53:00,30.6,-2.8,29.62,WSW,245,10.7,15.2,23,0.00,,---,0.00,VWS V14.01,2013-01-06 19:53:00,
2013-01-06 13:58:00,30.6,-2.8,29.62,WNW,291,9.8,17.4,23,0.00,,---,0.00,VWS V14.01,2013-01-06 19:58:00,
2013-01-06 14:03:00,30.6,-2.8,29.62,West,263,15.2,15.2,23,0.00,,---,0.00,VWS V14.01,2013-01-06 20:03:00,
2013-01-06 14:08:00,30.6,-2.8,29.62,West,277,20.1,20.1,23,0.00,,---,0.00,VWS V14.01,2013-01-06 20:08:00,
2013-01-06 14:11:00,30.6,-2.8,29.62,West,277,12.5,12.5,23,0.00,,---,0.00,VWS V14.01,2013-01-06 20:11:00,
2013-01-06 14:13:00,30.6,-2.8,29.62,WSW,250,10.7,16.6,23,0.00,,---,0.00,VWS V14.01,2013-01-06 20:13:00,
2013-01-06 14:18:00,30.6,-2.8,29.62,NW,305,16.6,16.6,23,0.00,,---,0.00,VWS V14.01,2013-01-06 20:18:00,
2013-01-06 14:23:00,30.6,-2.8,29.62,West,271,21.9,21.9,23,0.00,,---,0.00,VWS V14.01,2013-01-06 20:23:00,
2013-01-06 14:28:00,30.6,-2.8,29.65,West,278,12.5,12.5,23,0.00,,---,0.00,VWS V14.01,2013-01-06 20:28:00,
2013-01-06 14:33:00,30.6,-2.8,29.65,WNW,297,10.7,11.6,23,0.00,,---,0.00,VWS V14.01,2013-01-06 20:33:00,
2013-01-06 14:38:00,30.6,-2.8,29.65,West,263,16.1,17.4,23,0.00,,---,0.00,VWS V14.01,2013-01-06 20:38:00,
2013-01-06 14:43:00,31.8,-1.8,29.65,WSW,246,10.7,12.5,23,0.00,,---,0.00,VWS V14.01,2013-01-06 20:43:00,
2013-01-06 14:48:00,31.3,-2.2,29.65,West,278,16.1,16.1,23,0.00,,---,0.00,VWS V14.01,2013-01-06 20:48:00,
2013-01-06 14:53:00,31.3,-2.2,29.65,West,270,11.6,16.1,23,0.00,,---,0.00,VWS V14.01,2013-01-06 20:53:00,
2013-01-06 14:58:00,32.0,-1.6,29.65,West,280,8.1,10.7,23,0.00,,---,0.00,VWS V14.01,2013-01-06 20:58:00,
2013-01-06 15:00:00,32.2,-1.4,29.65,West,278,15.2,15.2,23,0.00,,---,0.00,VWS V14.01,2013-01-06 21:00:00,
2013-01-06 15:05:00,32.2,-1.4,29.65,West,281,7.2,9.8,23,0.00,,---,0.00,VWS V14.01,2013-01-06 21:05:00,
2013-01-06 15:10:00,31.8,-1.8,29.65,WSW,251,10.7,11.6,23,0.00,,---,0.00,VWS V14.01,2013-01-06 21:10:00,
2013-01-06 15:15:00,31.8,-1.8,29.68,WSW,258,9.8,11.6,23,0.00,,---,0.00,VWS V14.01,2013-01-06 21:15:00,
2013-01-06 15:20:00,31.8,-1.8,29.68,WNW,288,11.6,12.5,23,0.00,,---,0.00,VWS V14.01,2013-01-06 21:20:00,
2013-01-06 15:25:00,31.8,-1.8,29.68,WSW,245,12.5,12.5,23,0.00,,---,0.00,VWS V14.01,2013-01-06 21:25:00,
2013-01-06 15:30:00,31.8,-1.8,29.68,SW,232,10.7,10.7,23,0.00,,---,0.00,VWS V14.01,2013-01-06 21:30:00,
2013-01-06 15:35:00,31.8,-1.8,29.68,WSW,255,12.5,12.5,23,0.00,,---,0.00,VWS V14.01,2013-01-06 21:35:00,
2013-01-06 15:40:00,30.2,-3.1,29.68,WSW,238,10.7,10.7,23,0.00,,---,0.00,VWS V14.01,2013-01-06 21:40:00,
2013-01-06 15:45:00,29.8,-3.4,29.68,WSW,250,12.5,13.4,23,0.00,,---,0.00,VWS V14.01,2013-01-06 21:45:00,
2013-01-06 15:50:00,29.1,-4.1,29.68,West,281,8.1,10.7,23,0.00,,---,0.00,VWS V14.01,2013-01-06 21:50:00,
2013-01-06 15:55:00,28.8,-4.3,29.68,WSW,257,10.7,12.5,23,0.00,,---,0.00,VWS V14.01,2013-01-06 21:55:00,
2013-01-06 16:00:00,28.6,-4.5,29.68,WSW,252,15.2,15.2,23,0.00,,---,0.00,VWS V14.01,2013-01-06 22:00:00,
2013-01-06 16:05:00,28.0,-2.4,29.68,West,260,16.6,16.6,26,0.00,,---,0.00,VWS V14.01,2013-01-06 22:05:00,
2013-01-06 16:10:00,27.9,-2.6,29.68,WSW,245,16.1,16.1,26,0.00,,---,0.00,VWS V14.01,2013-01-06 22:10:00,
2013-01-06 16:15:00,27.5,-2.9,29.71,SSW,205,12.5,12.5,26,0.00,,---,0.00,VWS V14.01,2013-01-06 22:15:00,
2013-01-06 16:20:00,27.3,-3.0,29.71,SW,234,11.6,15.2,26,0.00,,---,0.00,VWS V14.01,2013-01-06 22:20:00,
2013-01-06 16:25:00,27.1,-3.2,29.71,WSW,251,9.8,10.7,26,0.00,,---,0.00,VWS V14.01,2013-01-06 22:25:00,
2013-01-06 16:30:00,26.8,-1.9,29.71,WSW,244,10.7,10.7,28,0.00,,---,0.00,VWS V14.01,2013-01-06 22:30:00,
2013-01-06 16:35:00,26.6,-1.4,29.71,West,274,12.5,12.5,29,0.00,,---,0.00,VWS V14.01,2013-01-06 22:35:00,
2013-01-06 16:40:00,26.2,-0.3,29.71,WSW,256,8.9,10.7,31,0.00,,---,0.00,VWS V14.01,2013-01-06 22:40:00,
2013-01-06 16:45:00,26.1,-0.4,29.71,West,261,7.2,9.8,31,0.00,,---,0.00,VWS V14.01,2013-01-06 22:45:00,
2013-01-06 16:50:00,25.9,0.1,29.71,West,271,8.9,10.7,32,0.00,,---,0.00,VWS V14.01,2013-01-06 22:50:00,
2013-01-06 16:55:00,25.5,-0.2,29.71,West,259,8.1,8.1,32,0.00,,---,0.00,VWS V14.01,2013-01-06 22:55:00,
2013-01-06 17:00:00,25.5,-0.2,29.71,West,269,9.8,9.8,32,0.00,,---,0.00,VWS V14.01,2013-01-06 23:00:00,
2013-01-06 17:05:00,25.3,-0.4,29.71,West,260,7.2,8.1,32,0.00,,---,0.00,VWS V14.01,2013-01-06 23:05:00,
2013-01-06 17:10:00,25.2,-0.5,29.71,WSW,246,8.1,8.1,32,0.00,,---,0.00,VWS V14.01,2013-01-06 23:10:00,
2013-01-06 17:15:00,25.0,-0.7,29.71,WSW,246,9.8,9.8,32,0.00,,---,0.00,VWS V14.01,2013-01-06 23:15:00,
2013-01-06 17:20:00,24.6,-0.4,29.71,WSW,246,5.4,5.4,33,0.00,,---,0.00,VWS V14.01,2013-01-06 23:20:00,
2013-01-06 17:25:00,24.4,0.1,29.71,WSW,249,9.8,9.8,34,0.00,,---,0.00,VWS V14.01,2013-01-06 23:25:00,
2013-01-06 17:30:00,24.1,-0.2,29.74,WSW,253,5.4,5.4,34,0.00,,---,0.00,VWS V14.01,2013-01-06 23:30:00,
2013-01-06 17:35:00,23.5,-0.1,29.74,SW,234,7.2,7.2,35,0.00,,---,0.00,VWS V14.01,2013-01-06 23:35:00,
2013-01-06 17:40:00,23.5,0.5,29.74,West,259,7.2,7.2,36,0.00,,---,0.00,VWS V14.01,2013-01-06 23:40:00,
2013-01-06 17:45:00,23.5,0.5,29.74,WSW,250,7.2,8.1,36,0.00,,---,0.00,VWS V14.01,2013-01-06 23:45:00,
2013-01-06 17:50:00,23.4,0.4,29.74,WSW,241,6.3,8.1,36,0.00,,---,0.00,VWS V14.01,2013-01-06 23:50:00,
2013-01-06 17:55:00,22.8,0.5,29.74,WSW,246,5.4,5.4,37,0.00,,---,0.00,VWS V14.01,2013-01-06 23:55:00,
2013-01-06 18:00:00,22.8,1.6,29.74,WSW,256,5.4,6.3,39,0.00,,---,0.00,VWS V14.01,2013-01-07 00:00:00,
2013-01-06 18:05:00,22.8,2.7,29.74,WSW,256,5.4,6.3,41,0.00,,---,0.00,VWS V14.01,2013-01-07 00:05:00,
2013-01-06 18:10:00,21.9,1.3,29.74,WSW,256,6.3,6.3,40,0.00,,---,0.00,VWS V14.01,2013-01-07 00:10:00,
2013-01-06 18:15:00,21.6,1.5,29.74,WSW,256,0.0,0.0,41,0.00,,---,0.00,VWS V14.01,2013-01-07 00:15:00,
2013-01-06 18:20:00,21.2,1.2,29.74,WSW,256,0.0,0.0,41,0.00,,---,0.00,VWS V14.01,2013-01-07 00:20:00,
2013-01-06 18:25:00,21.4,1.9,29.74,WSW,256,0.0,0.0,42,0.00,,---,0.00,VWS V14.01,2013-01-07 00:25:00,
2013-01-06 18:30:00,22.1,3.5,29.74,WSW,256,0.0,0.0,44,0.00,,---,0.00,VWS V14.01,2013-01-07 00:30:00,
2013-01-06 18:35:00,21.7,3.2,29.74,WSW,256,0.0,0.0,44,0.00,,---,0.00,VWS V14.01,2013-01-07 00:35:00,
2013-01-06 18:40:00,21.4,2.9,29.74,WSW,256,0.0,0.0,44,0.00,,---,0.00,VWS V14.01,2013-01-07 00:40:00,
2013-01-06 18:45:00,21.2,2.7,29.77,WSW,256,0.0,0.0,44,0.00,,---,0.00,VWS V14.01,2013-01-07 00:45:00,
2013-01-06 18:50:00,21.4,2.9,29.77,WSW,256,0.0,0.0,44,0.00,,---,0.00,VWS V14.01,2013-01-07 00:50:00,
2013-01-06 18:55:00,21.0,3.0,29.77,WSW,256,0.0,0.0,45,0.00,,---,0.00,VWS V14.01,2013-01-07 00:55:00,
2013-01-06 19:00:00,21.0,3.0,29.77,WSW,256,0.0,0.0,45,0.00,,---,0.00,VWS V14.01,2013-01-07 01:00:00,
2013-01-06 19:05:00,20.7,2.7,29.77,WSW,256,0.0,0.0,45,0.00,,---,0.00,VWS V14.01,2013-01-07 01:05:00,
2013-01-06 19:10:00,20.7,2.7,29.77,WSW,256,0.0,0.0,45,0.00,,---,0.00,VWS V14.01,2013-01-07 01:10:00,
2013-01-06 19:15:00,20.5,2.5,29.77,WSW,256,0.0,0.0,45,0.00,,---,0.00,VWS V14.01,2013-01-07 01:15:00,
2013-01-06 19:20:00,20.5,3.0,29.77,WSW,256,0.0,0.0,46,0.00,,---,0.00,VWS V14.01,2013-01-07 01:20:00,
2013-01-06 19:25:00,20.3,2.4,29.77,WSW,256,0.0,0.0,45,0.00,,---,0.00,VWS V14.01,2013-01-07 01:25:00,
2013-01-06 19:30:00,20.1,2.2,29.77,WSW,256,0.0,0.0,45,0.00,,---,0.00,VWS V14.01,2013-01-07 01:30:00,
2013-01-06 19:35:00,20.1,2.2,29.77,WSW,256,0.0,0.0,45,0.00,,---,0.00,VWS V14.01,2013-01-07 01:35:00,
2013-01-06 19:40:00,19.9,2.0,29.77,WSW,256,0.0,0.0,45,0.00,,---,0.00,VWS V14.01,2013-01-07 01:40:00,
2013-01-06 19:45:00,19.9,2.0,29.77,WSW,256,0.0,0.0,45,0.00,,---,0.00,VWS V14.01,2013-01-07 01:45:00,
2013-01-06 19:50:00,19.9,2.0,29.77,WSW,256,0.0,0.0,45,0.00,,---,0.00,VWS V14.01,2013-01-07 01:50:00,
2013-01-06 19:55:00,19.9,2.0,29.77,WSW,256,0.0,0.0,45,0.00,,---,0.00,VWS V14.01,2013-01-07 01:55:00,
2013-01-06 20:00:00,19.9,2.0,29.77,WSW,256,0.0,0.0,45,0.00,,---,0.00,VWS V14.01,2013-01-07 02:00:00,
2013-01-06 20:05:00,19.9,2.0,29.77,WSW,256,0.0,0.0,45,0.00,,---,0.00,VWS V14.01,2013-01-07 02:05:00,
2013-01-06 20:10:00,19.9,2.0,29.77,WSW,256,0.0,0.0,45,0.00,,---,0.00,VWS V14.01,2013-01-07 02:10:00,
2013-01-06 20:15:00,19.9,2.0,29.77,WSW,256,0.0,0.0,45,0.00,,---,0.00,VWS V14.01,2013-01-07 02:15:00,
2013-01-06 20:20:00,19.9,2.0,29.77,WSW,256,0.0,0.0,45,0.00,,---,0.00,VWS V14.01,2013-01-07 02:20:00,
2013-01-06 20:25:00,19.9,2.0,29.77,WSW,256,0.0,0.0,45,0.00,,---,0.00,VWS V14.01,2013-01-07 02:25:00,
2013-01-06 20:30:00,19.9,2.0,29.74,WSW,256,0.0,0.0,45,0.00,,---,0.00,VWS V14.01,2013-01-07 02:30:00,
2013-01-06 20:35:00,19.9,2.0,29.74,WSW,256,0.0,0.0,45,0.00,,---,0.00,VWS V14.01,2013-01-07 02:35:00,
2013-01-06 20:40:00,19.9,2.0,29.74,WSW,256,0.0,0.0,45,0.00,,---,0.00,VWS V14.01,2013-01-07 02:40:00,
2013-01-06 20:45:00,19.9,2.0,29.77,WSW,256,0.0,0.0,45,0.00,,---,0.00,VWS V14.01,2013-01-07 02:45:00,
2013-01-06 20:50:00,19.9,2.0,29.77,WSW,256,0.0,0.0,45,0.00,,---,0.00,VWS V14.01,2013-01-07 02:50:00,
2013-01-06 20:55:00,19.9,2.0,29.77,WSW,256,0.0,0.0,45,0.00,,---,0.00,VWS V14.01,2013-01-07 02:55:00,
2013-01-06 21:00:00,19.9,2.0,29.74,WSW,256,0.0,0.0,45,0.00,,---,0.00,VWS V14.01,2013-01-07 03:00:00,
2013-01-06 21:05:00,19.9,2.0,29.74,WSW,256,0.0,0.0,45,0.00,,---,0.00,VWS V14.01,2013-01-07 03:05:00,
2013-01-06 21:10:00,17.8,0.5,29.74,WSW,256,0.0,0.0,46,0.00,,---,0.00,VWS V14.01,2013-01-07 03:10:00,
2013-01-06 21:15:00,18.1,0.9,29.77,WSW,256,0.0,0.0,46,0.00,,---,0.00,VWS V14.01,2013-01-07 03:15:00,
2013-01-06 21:20:00,18.1,1.3,29.77,WSW,256,0.0,0.0,47,0.00,,---,0.00,VWS V14.01,2013-01-07 03:20:00,
2013-01-06 21:25:00,17.8,1.0,29.77,WSW,256,0.0,0.0,47,0.00,,---,0.00,VWS V14.01,2013-01-07 03:25:00,
2013-01-06 21:30:00,17.8,0.5,29.77,WSW,256,0.0,0.0,46,0.00,,---,0.00,VWS V14.01,2013-01-07 03:30:00,
2013-01-06 21:35:00,17.2,0.0,29.77,WSW,256,0.0,0.0,46,0.00,,---,0.00,VWS V14.01,2013-01-07 03:35:00,
2013-01-06 21:40:00,17.2,0.0,29.77,WSW,256,0.0,0.0,46,0.00,,---,0.00,VWS V14.01,2013-01-07 03:40:00,
2013-01-06 21:45:00,18.1,0.4,29.77,WSW,256,0.0,0.0,45,0.00,,---,0.00,VWS V14.01,2013-01-07 03:45:00,
2013-01-06 21:50:00,17.4,-0.3,29.77,WSW,256,0.0,0.0,45,0.00,,---,0.00,VWS V14.01,2013-01-07 03:50:00,
2013-01-06 21:55:00,16.5,-1.6,29.77,WSW,256,0.0,0.0,44,0.00,,---,0.00,VWS V14.01,2013-01-07 03:55:00,
2013-01-06 22:00:00,16.5,-1.6,29.77,WSW,256,0.0,0.0,44,0.00,,---,0.00,VWS V14.01,2013-01-07 04:00:00,
2013-01-06 22:05:00,16.7,-0.9,29.77,WSW,256,0.0,0.0,45,0.00,,---,0.00,VWS V14.01,2013-01-07 04:05:00,
2013-01-06 22:10:00,16.5,-1.1,29.77,WSW,256,0.0,0.0,45,0.00,,---,0.00,VWS V14.01,2013-01-07 04:10:00,
2013-01-06 22:15:00,16.5,-1.1,29.77,WSW,256,0.0,0.0,45,0.00,,---,0.00,VWS V14.01,2013-01-07 04:15:00,
2013-01-06 22:20:00,16.5,-1.1,29.77,WSW,256,0.0,0.0,45,0.00,,---,0.00,VWS V14.01,2013-01-07 04:20:00,
2013-01-06 22:25:00,16.5,-1.1,29.77,WSW,256,0.0,0.0,45,0.00,,---,0.00,VWS V14.01,2013-01-07 04:25:00,
2013-01-06 22:30:00,16.5,-1.1,29.77,WSW,256,0.0,0.0,45,0.00,,---,0.00,VWS V14.01,2013-01-07 04:30:00,
2013-01-06 22:35:00,16.5,-1.1,29.77,WSW,256,0.0,0.0,45,0.00,,---,0.00,VWS V14.01,2013-01-07 04:35:00,
2013-01-06 22:40:00,16.5,-1.1,29.77,WSW,256,0.0,0.0,45,0.00,,---,0.00,VWS V14.01,2013-01-07 04:40:00,
2013-01-06 22:45:00,16.5,-1.1,29.77,WSW,256,0.0,0.0,45,0.00,,---,0.00,VWS V14.01,2013-01-07 04:45:00,
2013-01-06 22:50:00,16.5,-1.1,29.77,WSW,256,0.0,0.0,45,0.00,,---,0.00,VWS V14.01,2013-01-07 04:50:00,
2013-01-06 22:55:00,16.5,-1.1,29.77,WSW,256,0.0,0.0,45,0.00,,---,0.00,VWS V14.01,2013-01-07 04:55:00,
2013-01-06 23:00:00,16.5,-1.1,29.77,WSW,256,0.0,0.0,45,0.00,,---,0.00,VWS V14.01,2013-01-07 05:00:00,
2013-01-06 23:01:00,16.5,-1.1,29.77,WSW,256,0.0,0.0,45,0.00,,---,0.00,VWS V14.01,2013-01-07 05:01:00,
2013-01-06 23:06:00,16.5,-1.1,29.77,WSW,256,0.0,0.0,45,0.00,,---,0.00,VWS V14.01,2013-01-07 05:06:00,
2013-01-06 23:11:00,16.5,-1.1,29.77,WSW,256,0.0,0.0,45,0.00,,---,0.00,VWS V14.01,2013-01-07 05:11:00,
2013-01-06 23:16:00,16.5,-1.1,29.77,WSW,256,0.0,0.0,45,0.00,,---,0.00,VWS V14.01,2013-01-07 05:16:00,
2013-01-06 23:21:00,16.5,-1.1,29.77,WSW,256,0.0,0.0,45,0.00,,---,0.00,VWS V14.01,2013-01-07 05:21:00,
2013-01-06 23:26:00,16.5,-1.1,29.77,WSW,256,0.0,0.0,45,0.00,,---,0.00,VWS V14.01,2013-01-07 05:26:00,
2013-01-06 23:31:00,16.5,-1.1,29.77,WSW,256,0.0,0.0,45,0.00,,---,0.00,VWS V14.01,2013-01-07 05:31:00,
2013-01-06 23:36:00,16.5,-1.1,29.77,WSW,256,0.0,0.0,45,0.00,,---,0.00,VWS V14.01,2013-01-07 05:36:00,
2013-01-06 23:41:00,16.5,-1.1,29.77,WSW,256,0.0,0.0,45,0.00,,---,0.00,VWS V14.01,2013-01-07 05:41:00,
2013-01-06 23:46:00,16.5,-1.1,29.77,WSW,256,0.0,0.0,45,0.00,,---,0.00,VWS V14.01,2013-01-07 05:46:00,
2013-01-06 23:51:00,16.5,-1.1,29.77,WSW,256,0.0,0.0,45,0.00,,---,0.00,VWS V14.01,2013-01-07 05:51:00,
2013-01-06 23:56:00,16.5,-1.1,29.77,WSW,256,0.0,0.0,45,0.00,,---,0.00,VWS V14.01,2013-01-07 05:56:00,